Time;durP1;ratioP1;P1;durP2;ratioP2;P2;SDS_P1;SDS_P2;PMS_P1;PMS_P2;Temp;Humidity;BMP_temperature;BMP_pressure;BME280_temperature;BME280_humidity;BME280_pressure;Samples;Min_cycle;Max_cycle;Signal;HPM_P1;HPM_P2
2022/07/23 00:02:10;;;;;;;;;;;;;;;19.00;58.12;101754.41;5025893;28;20016;-89
2022/07/23 00:04:35;;;;;;;;;;;;;;;18.97;57.86;101758.09;5026914;28;20068;-89
2022/07/23 00:07:01;;;;;;;;;;;;;;;18.90;57.94;101761.28;5026043;28;19923;-89
2022/07/23 00:09:28;;;;;;;;;;;;;;;18.85;58.01;101762.41;5025465;28;19928;-89
2022/07/23 00:11:53;;;;;;;;;;;;;;;18.80;58.24;101763.66;5025318;28;20510;-87
2022/07/23 00:14:18;;;;;;;;;;;;;;;18.74;58.08;101770.22;5010531;28;19964;-89
2022/07/23 00:16:44;;;;;;;;;;;;;;;18.69;59.49;101766.09;5022951;28;20368;-90
2022/07/23 00:19:09;;;;;;;;;;;;;;;18.51;59.15;101766.22;5022794;28;19976;-89
2022/07/23 00:21:34;;;;;;;;;;;;;;;18.54;58.66;101765.16;5026096;28;20356;-90
2022/07/23 00:23:59;;;;;;;;;;;;;;;18.55;58.87;101766.88;5026224;28;19921;-88
2022/07/23 00:26:24;;;;;;;;;;;;;;;18.58;59.36;101761.34;5022359;28;19952;-89
2022/07/23 00:28:50;;;;;;;;;;;;;;;18.63;60.06;101756.56;5036488;28;19956;-87
2022/07/23 00:31:15;;;;;;;;;;;;;;;18.55;60.70;101761.50;5016758;28;19932;-88
2022/07/23 00:33:40;;;;;;;;;;;;;;;18.49;59.29;101759.19;5036254;28;20342;-87
2022/07/23 00:36:05;;;;;;;;;;;;;;;18.50;58.68;101761.78;5029858;28;19921;-88
2022/07/23 00:38:31;;;;;;;;;;;;;;;18.41;58.96;101748.94;5024288;28;19932;-88
2022/07/23 00:40:56;;;;;;;;;;;;;;;18.26;58.78;101749.84;5022616;28;19970;-87
2022/07/23 00:43:21;;;;;;;;;;;;;;;18.25;59.34;101754.31;5023270;28;20164;-88
2022/07/23 00:45:47;;;;;;;;;;;;;;;18.26;59.07;101750.69;5025219;28;19968;-88
2022/07/23 00:48:12;;;;;;;;;;;;;;;18.29;59.16;101766.59;5008304;28;20192;-89
2022/07/23 00:50:37;;;;;;;;;;;;;;;18.21;59.52;101757.25;5026160;28;19920;-88
2022/07/23 00:53:03;;;;;;;;;;;;;;;18.06;59.97;101761.69;5025642;28;19924;-88
2022/07/23 00:55:28;;;;;;;;;;;;;;;18.06;59.71;101750.97;5022800;28;19917;-87
2022/07/23 00:57:55;;;;;;;;;;;;;;;18.09;59.55;101751.69;5023827;28;19923;-88
2022/07/23 01:00:20;;;;;;;;;;;;;;;18.14;59.52;101756.78;5025285;28;20211;-88
2022/07/23 01:02:45;;;;;;;;;;;;;;;18.15;59.67;101761.16;5025826;28;19928;-88
2022/07/23 01:05:11;;;;;;;;;;;;;;;18.16;60.02;101756.66;5024790;28;19927;-88
2022/07/23 01:07:36;;;;;;;;;;;;;;;18.02;60.03;101752.97;5025225;28;19921;-88
2022/07/23 01:10:02;;;;;;;;;;;;;;;17.82;61.23;101751.41;5025984;28;19917;-87
2022/07/23 01:12:27;;;;;;;;;;;;;;;17.70;61.57;101744.03;5025592;28;19936;-88
2022/07/23 01:14:57;;;;;;;;;;;;;;;17.67;60.37;101743.34;5009463;28;19921;-87
2022/07/23 01:17:22;;;;;;;;;;;;;;;17.69;59.99;101742.31;5020856;28;20424;-88
2022/07/23 01:19:47;;;;;;;;;;;;;;;17.69;60.11;101738.78;5025515;28;19921;-88
2022/07/23 01:22:14;;;;;;;;;;;;;;;17.68;59.80;101740.59;5012280;28;19917;-88
2022/07/23 01:24:39;;;;;;;;;;;;;;;17.65;60.45;101746.09;5023957;28;19929;-88
2022/07/23 01:27:05;;;;;;;;;;;;;;;17.49;61.07;101747.91;5004432;28;19927;-88
2022/07/23 01:29:30;;;;;;;;;;;;;;;17.32;60.94;101743.47;5007341;28;19971;-88
2022/07/23 01:31:56;;;;;;;;;;;;;;;17.34;60.96;101747.75;5008269;28;20004;-88
2022/07/23 01:34:21;;;;;;;;;;;;;;;17.41;61.20;101744.78;5027509;28;19917;-88
2022/07/23 01:36:46;;;;;;;;;;;;;;;17.47;61.94;101747.13;5006432;28;19921;-87
2022/07/23 01:39:12;;;;;;;;;;;;;;;17.45;61.90;101744.53;5025349;28;20281;-88
2022/07/23 01:41:37;;;;;;;;;;;;;;;17.42;62.44;101743.84;5022266;28;20012;-87
2022/07/23 01:44:02;;;;;;;;;;;;;;;17.36;62.42;101733.47;5026035;28;19999;-88
2022/07/23 01:46:27;;;;;;;;;;;;;;;17.32;61.72;101735.44;5004528;28;19960;-87
2022/07/23 01:48:53;;;;;;;;;;;;;;;17.33;61.15;101740.69;5023489;28;20164;-87
2022/07/23 01:51:18;;;;;;;;;;;;;;;17.29;61.34;101747.16;5020961;28;19983;-88
2022/07/23 01:53:43;;;;;;;;;;;;;;;17.23;60.44;101750.16;5022340;28;19921;-87
2022/07/23 01:56:08;;;;;;;;;;;;;;;17.19;60.54;101737.91;5022016;28;19921;-88
2022/07/23 01:58:33;;;;;;;;;;;;;;;17.07;61.34;101741.25;5024174;28;19913;-88
2022/07/23 02:00:59;;;;;;;;;;;;;;;16.95;61.80;101737.41;5018607;28;19991;-88
2022/07/23 02:03:25;;;;;;;;;;;;;;;16.95;61.71;101740.06;5008707;28;19924;-88
2022/07/23 02:05:50;;;;;;;;;;;;;;;16.98;61.25;101739.94;5027661;28;20284;-88
2022/07/23 02:08:15;;;;;;;;;;;;;;;17.04;62.76;101734.25;5011440;28;20273;-88
2022/07/23 02:10:41;;;;;;;;;;;;;;;17.07;62.73;101730.56;5026813;28;19925;-88
2022/07/23 02:13:06;;;;;;;;;;;;;;;17.08;62.46;101740.31;5027575;28;19921;-88
2022/07/23 02:15:31;;;;;;;;;;;;;;;17.03;62.38;101737.00;5025937;28;19917;-88
2022/07/23 02:17:56;;;;;;;;;;;;;;;16.98;62.56;101736.41;5027351;28;19972;-88
2022/07/23 02:20:22;;;;;;;;;;;;;;;16.89;62.26;101727.06;5009089;28;19917;-88
2022/07/23 02:22:47;;;;;;;;;;;;;;;16.82;62.98;101729.16;5024120;28;20356;-88
2022/07/23 02:25:12;;;;;;;;;;;;;;;16.83;61.47;101722.91;5029156;28;20432;-88
2022/07/23 02:27:37;;;;;;;;;;;;;;;16.85;62.38;101728.16;5027762;28;19966;-87
2022/07/23 02:30:03;;;;;;;;;;;;;;;16.83;62.35;101724.69;5028143;28;19917;-87
2022/07/23 02:32:28;;;;;;;;;;;;;;;16.78;62.35;101718.72;5027442;28;20360;-88
2022/07/23 02:34:53;;;;;;;;;;;;;;;16.77;61.56;101719.66;5009491;28;19917;-88
2022/07/23 02:37:18;;;;;;;;;;;;;;;16.75;60.85;101732.25;5028525;28;20146;-88
2022/07/23 02:39:44;;;;;;;;;;;;;;;16.71;61.14;101730.66;5035234;28;19983;-87
2022/07/23 02:42:09;;;;;;;;;;;;;;;16.68;61.58;101723.63;5023188;28;20329;-88
2022/07/23 02:44:34;;;;;;;;;;;;;;;16.61;61.70;101719.56;5019553;28;19925;-88
2022/07/23 02:47:00;;;;;;;;;;;;;;;16.56;62.10;101724.28;5028893;28;19917;-88
2022/07/23 02:49:25;;;;;;;;;;;;;;;16.55;62.23;101728.78;5021448;28;19917;-88
2022/07/23 02:51:50;;;;;;;;;;;;;;;16.57;61.96;101736.69;5026516;28;20309;-88
2022/07/23 02:54:15;;;;;;;;;;;;;;;16.51;61.64;101742.34;5010280;28;20418;-88
2022/07/23 02:56:41;;;;;;;;;;;;;;;16.48;61.24;101737.16;5027155;28;20269;-87
2022/07/23 02:59:06;;;;;;;;;;;;;;;16.48;61.46;101731.81;5024517;28;19929;-88
2022/07/23 03:01:31;;;;;;;;;;;;;;;16.46;61.41;101737.25;5028739;28;20011;-88
2022/07/23 03:03:56;;;;;;;;;;;;;;;16.48;62.21;101732.69;5010642;28;20014;-87
2022/07/23 03:06:22;;;;;;;;;;;;;;;16.50;63.02;101737.94;5017300;28;20015;-88
2022/07/23 03:08:47;;;;;;;;;;;;;;;16.48;63.42;101734.50;5027412;28;19949;-87
2022/07/23 03:11:12;;;;;;;;;;;;;;;16.40;63.00;101736.66;5023772;28;20295;-88
2022/07/23 03:13:38;;;;;;;;;;;;;;;16.24;63.62;101736.59;5026114;28;19925;-88
2022/07/23 03:16:03;;;;;;;;;;;;;;;16.20;62.40;101754.53;5028159;28;20415;-88
2022/07/23 03:18:28;;;;;;;;;;;;;;;16.21;62.91;101750.06;5020094;28;20385;-87
2022/07/23 03:20:53;;;;;;;;;;;;;;;16.18;63.11;101748.44;5023151;28;19917;-88
2022/07/23 03:23:19;;;;;;;;;;;;;;;16.20;61.88;101743.88;5025488;28;20610;-88
2022/07/23 03:25:46;;;;;;;;;;;;;;;16.15;62.31;101740.56;5020002;28;19925;-87
2022/07/23 03:28:11;;;;;;;;;;;;;;;16.15;63.91;101743.22;5021991;28;20383;-87
2022/07/23 03:30:37;;;;;;;;;;;;;;;16.14;62.98;101748.66;5004771;28;19921;-88
2022/07/23 03:33:02;;;;;;;;;;;;;;;16.08;62.01;101741.78;5027322;28;19924;-88
2022/07/23 03:35:27;;;;;;;;;;;;;;;16.11;64.03;101751.47;5025317;28;20291;-88
2022/07/23 03:37:52;;;;;;;;;;;;;;;16.15;64.39;101748.56;5026824;28;19921;-88
2022/07/23 03:40:17;;;;;;;;;;;;;;;16.14;62.43;101749.50;5024793;28;19921;-88
2022/07/23 03:42:43;;;;;;;;;;;;;;;16.13;62.50;101747.75;5024695;28;19917;-88
2022/07/23 03:45:08;;;;;;;;;;;;;;;16.15;61.93;101748.56;5028579;28;19943;-87
2022/07/23 03:47:33;;;;;;;;;;;;;;;16.14;61.55;101749.50;5027464;28;19944;-88
2022/07/23 03:49:59;;;;;;;;;;;;;;;16.11;61.95;101752.31;5006694;28;19925;-88
2022/07/23 03:52:24;;;;;;;;;;;;;;;16.12;63.24;101754.03;5028129;28;19917;-88
2022/07/23 03:54:49;;;;;;;;;;;;;;;16.04;63.03;101751.78;5027999;28;20308;-88
2022/07/23 03:57:14;;;;;;;;;;;;;;;16.02;62.57;101748.28;5027435;28;19921;-88
2022/07/23 03:59:39;;;;;;;;;;;;;;;16.03;62.21;101749.16;5007567;28;19957;-88
2022/07/23 04:02:05;;;;;;;;;;;;;;;16.06;62.91;101746.34;5015665;28;19924;-88
2022/07/23 04:04:30;;;;;;;;;;;;;;;16.08;63.41;101756.00;5025867;28;19973;-88
2022/07/23 04:06:55;;;;;;;;;;;;;;;16.07;63.72;101748.94;5022979;28;19917;-88
2022/07/23 04:09:20;;;;;;;;;;;;;;;16.09;63.32;101751.53;5025229;28;19921;-88
2022/07/23 04:11:45;;;;;;;;;;;;;;;16.06;62.97;101755.22;5026084;28;19944;-88
2022/07/23 04:14:11;;;;;;;;;;;;;;;16.07;63.46;101756.06;5010488;28;19968;-87
2022/07/23 04:16:36;;;;;;;;;;;;;;;16.08;63.13;101758.66;5025193;28;20316;-88
2022/07/23 04:19:01;;;;;;;;;;;;;;;16.04;62.98;101753.53;5022701;28;19921;-88
2022/07/23 04:21:26;;;;;;;;;;;;;;;16.01;62.70;101759.91;5023579;28;19932;-87
2022/07/23 04:23:51;;;;;;;;;;;;;;;15.99;63.12;101766.25;5027874;28;19917;-87
2022/07/23 04:26:17;;;;;;;;;;;;;;;15.94;63.44;101770.94;5024277;28;19967;-88
2022/07/23 04:28:42;;;;;;;;;;;;;;;15.79;63.85;101780.53;5022641;28;20024;-87
2022/07/23 04:31:07;;;;;;;;;;;;;;;15.70;64.16;101771.16;5024358;28;20144;-87
2022/07/23 04:33:32;;;;;;;;;;;;;;;15.68;64.16;101775.72;5009014;28;20090;-87
2022/07/23 04:35:58;;;;;;;;;;;;;;;15.70;63.85;101779.16;5023700;28;20481;-87
2022/07/23 04:38:23;;;;;;;;;;;;;;;15.75;63.73;101779.81;5027588;28;20541;-87
2022/07/23 04:40:48;;;;;;;;;;;;;;;15.84;63.76;101775.84;5005304;28;19917;-87
2022/07/23 04:43:13;;;;;;;;;;;;;;;15.94;63.40;101779.78;5029625;28;19924;-88
2022/07/23 04:45:39;;;;;;;;;;;;;;;16.02;63.27;101785.63;5027991;28;19932;-88
2022/07/23 04:48:04;;;;;;;;;;;;;;;16.07;63.08;101786.28;5025500;28;19948;-87
2022/07/23 04:50:29;;;;;;;;;;;;;;;16.12;63.25;101788.72;5006759;28;19921;-88
2022/07/23 04:52:54;;;;;;;;;;;;;;;16.12;64.89;101788.72;5001721;28;19917;-88
2022/07/23 04:55:19;;;;;;;;;;;;;;;15.97;64.29;101806.34;5025105;28;19921;-88
2022/07/23 04:57:45;;;;;;;;;;;;;;;15.97;63.94;101789.47;5025023;28;19917;-88
2022/07/23 05:00:10;;;;;;;;;;;;;;;16.06;64.43;101791.69;5027020;28;19921;-88
2022/07/23 05:02:35;;;;;;;;;;;;;;;16.16;64.94;101790.31;5007988;28;19925;-88
2022/07/23 05:05:01;;;;;;;;;;;;;;;16.24;64.24;101793.47;5023665;28;20439;-89
2022/07/23 05:07:26;;;;;;;;;;;;;;;16.33;63.52;101790.38;5024397;28;20004;-87
2022/07/23 05:09:51;;;;;;;;;;;;;;;16.39;63.75;101796.34;5026215;28;19927;-88
2022/07/23 05:12:16;;;;;;;;;;;;;;;16.46;62.69;101800.41;5007785;28;19921;-88
2022/07/23 05:14:41;;;;;;;;;;;;;;;16.51;63.29;101793.94;5026340;28;19925;-88
2022/07/23 05:17:07;;;;;;;;;;;;;;;16.57;64.69;101801.63;5019013;28;19918;-88
2022/07/23 05:19:33;;;;;;;;;;;;;;;16.63;63.43;101792.44;5003552;28;19928;-87
2022/07/23 05:21:58;;;;;;;;;;;;;;;16.68;63.66;101800.22;5022250;28;19917;-88
2022/07/23 05:24:24;;;;;;;;;;;;;;;16.72;63.96;101802.69;5026178;28;19979;-88
2022/07/23 05:26:49;;;;;;;;;;;;;;;16.79;63.76;101809.47;5005780;28;20296;-88
2022/07/23 05:29:14;;;;;;;;;;;;;;;16.83;63.98;101813.72;5024972;28;19921;-88
2022/07/23 05:31:39;;;;;;;;;;;;;;;16.89;63.25;101814.34;5024490;28;20033;-87
2022/07/23 05:34:04;;;;;;;;;;;;;;;16.94;63.59;101807.81;5026999;28;20406;-88
2022/07/23 05:36:31;;;;;;;;;;;;;;;17.00;63.57;101817.31;5024001;28;19925;-88
2022/07/23 05:38:56;;;;;;;;;;;;;;;17.06;64.00;101812.50;5010487;28;20420;-88
2022/07/23 05:41:21;;;;;;;;;;;;;;;17.12;62.97;101816.69;5023956;28;20007;-88
2022/07/23 05:43:46;;;;;;;;;;;;;;;17.17;63.69;101814.63;5010289;28;19917;-89
2022/07/23 05:46:11;;;;;;;;;;;;;;;17.22;63.38;101815.25;5026663;28;19929;-88
2022/07/23 05:48:37;;;;;;;;;;;;;;;17.23;62.98;101822.31;5028107;28;20360;-87
2022/07/23 05:51:06;;;;;;;;;;;;;;;17.26;63.53;101827.53;5031440;28;19924;-88
2022/07/23 05:53:31;;;;;;;;;;;;;;;17.32;63.29;101824.50;5035450;28;20015;-87
2022/07/23 05:55:56;;;;;;;;;;;;;;;17.37;63.35;101832.28;5017743;28;19991;-87
2022/07/23 05:58:21;;;;;;;;;;;;;;;17.44;63.41;101828.38;5020984;28;19984;-87
2022/07/23 06:00:46;;;;;;;;;;;;;;;17.49;63.40;101830.78;5039079;28;19925;-87
2022/07/23 06:03:12;;;;;;;;;;;;;;;17.54;62.97;101831.41;5027767;28;19913;-88
2022/07/23 06:05:37;;;;;;;;;;;;;;;17.61;63.11;101838.13;5025977;28;19920;-88
2022/07/23 06:08:03;;;;;;;;;;;;;;;17.67;63.15;101845.81;5006612;28;20316;-88
2022/07/23 06:10:28;;;;;;;;;;;;;;;17.72;62.83;101841.13;5016705;28;19960;-88
2022/07/23 06:12:53;;;;;;;;;;;;;;;17.78;62.88;101850.66;5022086;28;19928;-87
2022/07/23 06:15:18;;;;;;;;;;;;;;;17.85;62.80;101846.69;5027680;28;19923;-88
2022/07/23 06:17:43;;;;;;;;;;;;;;;17.93;63.07;101846.28;5027399;28;20395;-87
2022/07/23 06:20:09;;;;;;;;;;;;;;;17.99;63.00;101840.56;5024642;28;19924;-87
2022/07/23 06:22:34;;;;;;;;;;;;;;;18.05;63.10;101838.44;5023371;28;20047;-88
2022/07/23 06:25:00;;;;;;;;;;;;;;;18.14;63.32;101846.88;5006148;28;20440;-87
2022/07/23 06:27:25;;;;;;;;;;;;;;;18.20;62.74;101843.88;5029002;28;19917;-87
2022/07/23 06:29:50;;;;;;;;;;;;;;;18.30;63.54;101847.75;5029352;28;20288;-87
2022/07/23 06:32:15;;;;;;;;;;;;;;;18.41;63.77;101839.09;5030125;28;20368;-87
2022/07/23 06:34:41;;;;;;;;;;;;;;;18.51;63.77;101845.66;5026736;28;20019;-86
2022/07/23 06:37:06;;;;;;;;;;;;;;;18.61;62.29;101844.19;5024529;28;19932;-88
2022/07/23 06:39:31;;;;;;;;;;;;;;;18.64;62.80;101848.50;5009250;28;19936;-87
2022/07/23 06:41:56;;;;;;;;;;;;;;;18.65;60.66;101847.53;5028526;28;19959;-88
2022/07/23 06:44:21;;;;;;;;;;;;;;;18.62;61.82;101843.25;5029287;28;20461;-87
2022/07/23 06:46:47;;;;;;;;;;;;;;;18.67;62.66;101846.50;5011078;28;19917;-87
2022/07/23 06:49:12;;;;;;;;;;;;;;;18.81;61.93;101840.38;5023354;28;19921;-87
2022/07/23 06:51:37;;;;;;;;;;;;;;;18.94;62.09;101841.38;5027173;28;19921;-87
2022/07/23 06:54:03;;;;;;;;;;;;;;;19.07;62.34;101847.75;5022819;28;20391;-87
2022/07/23 06:56:28;;;;;;;;;;;;;;;19.19;61.01;101853.31;5026307;28;20503;-87
2022/07/23 06:58:55;;;;;;;;;;;;;;;19.33;63.07;101853.34;5022547;28;20145;-87
2022/07/23 07:01:21;;;;;;;;;;;;;;;19.49;61.72;101853.25;5026837;28;20690;-87
2022/07/23 07:03:46;;;;;;;;;;;;;;;19.55;61.72;101853.75;5025435;28;19924;-87
2022/07/23 07:06:11;;;;;;;;;;;;;;;19.62;62.10;101859.63;5022485;28;20012;-87
2022/07/23 07:08:36;;;;;;;;;;;;;;;19.63;61.35;101853.31;5028493;28;19917;-87
2022/07/23 07:11:02;;;;;;;;;;;;;;;19.78;61.63;101851.50;5023660;28;19924;-88
2022/07/23 07:13:27;;;;;;;;;;;;;;;19.86;60.48;101847.38;5026943;28;19925;-87
2022/07/23 07:15:53;;;;;;;;;;;;;;;19.92;60.63;101856.00;5025990;28;19917;-87
2022/07/23 07:18:18;;;;;;;;;;;;;;;20.04;61.67;101855.22;5025263;28;19921;-87
2022/07/23 07:20:43;;;;;;;;;;;;;;;20.19;59.98;101851.56;5022472;28;19980;-87
2022/07/23 07:23:08;;;;;;;;;;;;;;;20.29;60.38;101838.41;5023845;28;19995;-87
2022/07/23 07:25:34;;;;;;;;;;;;;;;20.35;60.42;101838.00;5029175;28;19920;-87
2022/07/23 07:27:59;;;;;;;;;;;;;;;20.45;60.95;101844.47;5028674;28;19921;-87
2022/07/23 07:30:24;;;;;;;;;;;;;;;20.69;59.74;101852.75;5008795;28;20516;-87
2022/07/23 07:32:49;;;;;;;;;;;;;;;20.64;58.65;101850.38;5027805;28;19923;-87
2022/07/23 07:35:14;;;;;;;;;;;;;;;20.47;58.63;101856.03;5026302;28;20319;-87
2022/07/23 07:37:40;;;;;;;;;;;;;;;20.56;59.01;101863.50;5027458;28;19929;-87
2022/07/23 07:40:05;;;;;;;;;;;;;;;20.63;57.61;101869.31;5025396;28;19921;-87
2022/07/23 07:42:32;;;;;;;;;;;;;;;20.92;56.73;101870.03;5025960;28;20297;-88
2022/07/23 07:44:57;;;;;;;;;;;;;;;21.23;56.43;101866.13;5025936;28;19967;-88
2022/07/23 07:47:22;;;;;;;;;;;;;;;21.76;56.45;101866.94;5027873;28;19921;-87
2022/07/23 07:49:47;;;;;;;;;;;;;;;22.34;54.08;101861.91;5024630;28;19924;-87
2022/07/23 07:52:12;;;;;;;;;;;;;;;22.55;54.39;101860.31;5022403;28;19917;-87
2022/07/23 07:54:38;;;;;;;;;;;;;;;22.99;53.47;101858.84;5023936;28;20304;-87
2022/07/23 07:57:03;;;;;;;;;;;;;;;23.38;52.21;101854.03;5022309;28;19917;-87
2022/07/23 07:59:28;;;;;;;;;;;;;;;23.48;52.38;101859.56;5024317;28;19917;-88
2022/07/23 08:01:53;;;;;;;;;;;;;;;23.74;52.38;101863.78;5025048;28;19928;-88
2022/07/23 08:04:19;;;;;;;;;;;;;;;24.21;48.69;101864.50;5023310;28;19917;-87
2022/07/23 08:06:44;;;;;;;;;;;;;;;24.66;50.96;101867.13;5026435;28;20514;-89
2022/07/23 08:09:09;;;;;;;;;;;;;;;25.14;50.06;101869.41;5025439;28;19931;-88
2022/07/23 08:11:34;;;;;;;;;;;;;;;25.30;49.86;101871.66;5008874;28;19925;-89
2022/07/23 08:14:00;;;;;;;;;;;;;;;25.66;44.39;101873.03;5027601;28;20363;-89
2022/07/23 08:16:25;;;;;;;;;;;;;;;25.95;48.10;101865.03;5025050;28;19921;-89
2022/07/23 08:18:50;;;;;;;;;;;;;;;26.18;45.81;101871.97;5024203;28;19928;-89
2022/07/23 08:21:15;;;;;;;;;;;;;;;26.43;47.55;101876.06;5025201;28;19924;-89
2022/07/23 08:23:41;;;;;;;;;;;;;;;27.06;46.47;101872.13;5013370;28;19943;-89
2022/07/23 08:26:06;;;;;;;;;;;;;;;27.58;44.75;101878.06;5022226;28;19928;-89
2022/07/23 08:28:34;;;;;;;;;;;;;;;27.86;44.60;101879.84;5019587;28;20380;-89
2022/07/23 08:31:00;;;;;;;;;;;;;;;28.22;43.64;101878.09;5018060;28;19960;-90
2022/07/23 08:33:25;;;;;;;;;;;;;;;28.53;43.02;101890.53;5021963;28;19976;-89
2022/07/23 08:35:52;;;;;;;;;;;;;;;28.78;42.62;101884.34;5026983;28;19928;-89
2022/07/23 08:38:18;;;;;;;;;;;;;;;29.05;41.53;101886.16;5006697;28;20472;-89
2022/07/23 08:40:45;;;;;;;;;;;;;;;29.46;39.00;101895.47;5001015;28;20187;-89
2022/07/23 08:43:12;;;;;;;;;;;;;;;28.94;41.45;101897.25;4999942;28;19936;-89
2022/07/23 08:45:39;;;;;;;;;;;;;;;28.07;42.72;101895.06;5005480;28;19921;-89
2022/07/23 08:48:05;;;;;;;;;;;;;;;27.27;43.78;101899.13;4999198;28;20380;-90
2022/07/23 08:50:32;;;;;;;;;;;;;;;27.43;43.43;101900.25;5004082;28;19928;-89
2022/07/23 08:52:58;;;;;;;;;;;;;;;28.36;41.00;101901.25;5002201;28;20044;-89
2022/07/23 08:55:24;;;;;;;;;;;;;;;28.40;40.94;101902.66;5009000;28;20343;-88
2022/07/23 08:57:50;;;;;;;;;;;;;;;27.78;42.06;101901.47;5004672;28;19914;-90
2022/07/23 09:00:16;;;;;;;;;;;;;;;27.45;41.77;101895.50;5009934;28;19926;-89
2022/07/23 09:02:41;;;;;;;;;;;;;;;28.01;41.23;101903.81;5001532;28;19928;-89
2022/07/23 09:05:08;;;;;;;;;;;;;;;28.72;39.10;101901.28;5004170;28;19969;-89
2022/07/23 09:07:33;;;;;;;;;;;;;;;29.21;38.74;101901.78;5005978;28;19917;-89
2022/07/23 09:10:06;;;;;;;;;;;;;;;29.40;37.18;101896.13;5003062;28;19924;-89
2022/07/23 09:12:31;;;;;;;;;;;;;;;29.62;37.33;101892.06;4999293;28;20333;-89
2022/07/23 09:15:02;;;;;;;;;;;;;;;30.02;37.02;101898.75;5003122;28;20047;-89
2022/07/23 09:17:35;;;;;;;;;;;;;;;30.18;36.87;101896.13;5005142;28;19918;-89
2022/07/23 09:20:15;;;;;;;;;;;;;;;30.14;36.36;101891.16;5003231;28;19917;-89
2022/07/23 09:22:45;;;;;;;;;;;;;;;30.08;37.16;101886.31;5005593;28;19921;-89
2022/07/23 09:25:20;;;;;;;;;;;;;;;30.15;37.67;101884.69;5000026;28;19929;-89
2022/07/23 09:27:55;;;;;;;;;;;;;;;30.18;36.76;101878.91;5003600;28;19918;-89
2022/07/23 09:30:26;;;;;;;;;;;;;;;29.61;38.69;101878.56;5006955;28;19921;-89
2022/07/23 09:33:05;;;;;;;;;;;;;;;29.57;37.48;101879.94;5004721;28;19921;-89
2022/07/23 09:35:49;;;;;;;;;;;;;;;29.38;38.87;101880.97;5006404;28;19960;-90
2022/07/23 09:38:15;;;;;;;;;;;;;;;29.19;38.74;101884.72;5009439;28;19925;-90
2022/07/23 09:40:40;;;;;;;;;;;;;;;29.06;39.17;101882.44;5023592;28;19991;-90
2022/07/23 09:43:05;;;;;;;;;;;;;;;29.18;38.81;101893.91;5026819;28;19923;-90
2022/07/23 09:45:30;;;;;;;;;;;;;;;29.27;38.23;101883.94;5007179;28;19971;-89
2022/07/23 09:48:12;;;;;;;;;;;;;;;29.14;38.37;101887.06;5026735;28;20285;-90
2022/07/23 09:50:37;;;;;;;;;;;;;;;29.06;38.75;101896.03;5025096;28;19928;-89
2022/07/23 09:53:02;;;;;;;;;;;;;;;28.88;37.87;101897.88;5028904;28;19917;-87
2022/07/23 09:55:38;;;;;;;;;;;;;;;29.01;37.73;101900.25;5021715;28;19917;-90
2022/07/23 09:58:12;;;;;;;;;;;;;;;29.13;38.12;101901.69;5027633;28;20008;-91
2022/07/23 10:00:38;;;;;;;;;;;;;;;28.96;38.44;101896.13;5008328;28;19921;-90
2022/07/23 10:03:05;;;;;;;;;;;;;;;28.92;38.52;101897.41;5021427;28;19917;-90
2022/07/23 10:05:30;;;;;;;;;;;;;;;28.98;38.32;101893.25;5017344;28;20404;-90
2022/07/23 10:07:57;;;;;;;;;;;;;;;29.05;37.11;101888.88;5004047;28;19917;-90
2022/07/23 10:10:26;;;;;;;;;;;;;;;29.29;37.35;101892.81;5012463;28;19917;-90
2022/07/23 10:15:50;;;;;;;;;;;;;;;30.05;35.22;101895.69;4972256;28;20292;-90
2022/07/23 10:18:15;;;;;;;;;;;;;;;30.20;35.37;101901.41;5001915;28;19928;-90
2022/07/23 10:20:41;;;;;;;;;;;;;;;29.89;35.31;101896.47;5016052;28;19932;-91
2022/07/23 10:23:25;;;;;;;;;;;;;;;29.02;34.82;101888.34;5010045;28;19916;-90
2022/07/23 10:25:50;;;;;;;;;;;;;;;28.70;36.90;101890.56;5023690;28;20362;-89
2022/07/23 10:28:33;;;;;;;;;;;;;;;29.21;36.24;101888.16;5026242;28;20023;-89
2022/07/23 10:31:04;;;;;;;;;;;;;;;29.32;36.39;101890.63;5021832;28;19921;-89
2022/07/23 10:33:37;;;;;;;;;;;;;;;29.46;36.20;101887.31;5025066;28;19924;-89
2022/07/23 10:36:18;;;;;;;;;;;;;;;30.24;35.64;101895.47;5024303;28;19917;-89
2022/07/23 10:38:46;;;;;;;;;;;;;;;30.04;33.52;101893.13;5023079;28;19929;-90
2022/07/23 10:41:11;;;;;;;;;;;;;;;29.55;35.04;101890.13;5023325;28;19970;-90
2022/07/23 10:43:36;;;;;;;;;;;;;;;29.94;35.45;101891.41;5029534;28;19917;-90
2022/07/23 10:46:31;;;;;;;;;;;;;;;30.27;35.54;101893.44;5021850;28;19921;-91
2022/07/23 10:49:20;;;;;;;;;;;;;;;30.68;34.55;101891.66;5019650;28;19925;-90
2022/07/23 10:52:04;;;;;;;;;;;;;;;31.02;34.60;101883.38;5023451;28;19917;-90
2022/07/23 10:54:29;;;;;;;;;;;;;;;31.36;33.88;101885.94;5025447;28;19925;-91
2022/07/23 10:56:55;;;;;;;;;;;;;;;31.56;33.04;101883.66;5020139;28;20391;-90
2022/07/23 10:59:21;;;;;;;;;;;;;;;31.56;33.44;101886.41;5026105;28;19927;-91
2022/07/23 11:01:46;;;;;;;;;;;;;;;31.57;32.70;101888.13;5008170;28;20289;-92
2022/07/23 11:04:13;;;;;;;;;;;;;;;31.30;32.59;101885.78;5019743;28;19933;-90
2022/07/23 11:06:50;;;;;;;;;;;;;;;31.21;32.67;101893.09;5024460;28;19991;-90
2022/07/23 11:09:26;;;;;;;;;;;;;;;31.44;32.35;101894.13;5030059;28;20107;-92
2022/07/23 11:12:11;;;;;;;;;;;;;;;31.35;31.96;101884.25;5023027;28;20418;-90
2022/07/23 11:15:06;;;;;;;;;;;;;;;31.17;32.52;101884.38;5023680;28;19924;-90
2022/07/23 11:17:32;;;;;;;;;;;;;;;31.31;32.75;101890.22;4995609;28;19917;-91
2022/07/23 11:20:10;;;;;;;;;;;;;;;31.30;32.58;101878.44;5027807;28;19990;-91
2022/07/23 11:22:39;;;;;;;;;;;;;;;31.60;32.33;101881.44;5017383;28;19921;-91
2022/07/23 11:25:05;;;;;;;;;;;;;;;31.43;31.38;101880.63;5028645;28;20380;-90
2022/07/23 11:27:37;;;;;;;;;;;;;;;31.29;32.03;101881.31;5026634;28;19921;-91
2022/07/23 11:30:02;;;;;;;;;;;;;;;31.40;32.87;101870.91;5008260;28;19914;-91
2022/07/23 11:32:29;;;;;;;;;;;;;;;31.79;32.32;101874.72;5023895;28;19928;-89
2022/07/23 11:34:54;;;;;;;;;;;;;;;31.74;31.84;101875.25;5023244;28;20269;-91
2022/07/23 11:37:27;;;;;;;;;;;;;;;31.34;32.51;101865.28;5008950;28;19936;-91
2022/07/23 11:39:56;;;;;;;;;;;;;;;31.72;32.16;101877.31;5005587;28;20335;-90
2022/07/23 11:42:23;;;;;;;;;;;;;;;32.05;31.03;101874.50;5023126;28;19917;-90
2022/07/23 11:44:48;;;;;;;;;;;;;;;32.08;31.29;101880.44;5026112;28;19921;-90
2022/07/23 11:47:13;;;;;;;;;;;;;;;32.22;31.33;101876.13;5033057;28;20492;-91
2022/07/23 11:49:39;;;;;;;;;;;;;;;32.33;31.44;101877.63;5024547;28;19933;-89
2022/07/23 11:52:07;;;;;;;;;;;;;;;32.70;31.17;101876.91;5024069;28;19923;-91
2022/07/23 11:54:33;;;;;;;;;;;;;;;33.02;31.07;101878.56;5022456;28;19921;-89
2022/07/23 11:56:59;;;;;;;;;;;;;;;33.13;30.55;101874.53;5017916;28;19917;-91
2022/07/23 11:59:25;;;;;;;;;;;;;;;33.23;29.77;101880.59;5024324;28;20376;-90
2022/07/23 12:01:58;;;;;;;;;;;;;;;33.35;30.92;101881.88;5008416;28;19917;-90
2022/07/23 12:04:24;;;;;;;;;;;;;;;33.55;30.57;101876.72;5009628;28;20006;-90
2022/07/23 12:06:49;;;;;;;;;;;;;;;33.00;29.77;101869.66;5027195;28;19921;-90
2022/07/23 12:09:14;;;;;;;;;;;;;;;32.56;30.50;101873.06;5026597;28;19924;-90
2022/07/23 12:11:58;;;;;;;;;;;;;;;32.62;30.57;101876.94;5025106;28;19928;-90
2022/07/23 12:14:24;;;;;;;;;;;;;;;32.42;29.90;101868.34;5026437;28;20059;-91
2022/07/23 12:17:06;;;;;;;;;;;;;;;32.71;28.94;101868.50;5007752;28;20327;-91
2022/07/23 12:19:31;;;;;;;;;;;;;;;32.68;29.16;101881.69;5021946;28;19921;-91
2022/07/23 12:21:56;;;;;;;;;;;;;;;32.85;28.43;101871.47;5026099;28;20427;-92
2022/07/23 12:24:22;;;;;;;;;;;;;;;33.04;26.95;101873.75;5033528;28;19921;-90
2022/07/23 12:27:05;;;;;;;;;;;;;;;33.17;28.92;101873.97;5018811;28;20282;-91
2022/07/23 12:29:34;;;;;;;;;;;;;;;33.30;28.25;101867.03;5021749;28;20430;-90
2022/07/23 12:32:00;;;;;;;;;;;;;;;33.18;29.41;101869.34;5010645;28;19932;-92
2022/07/23 12:34:25;;;;;;;;;;;;;;;33.39;28.28;101869.50;5026918;28;19921;-90
2022/07/23 12:36:51;;;;;;;;;;;;;;;33.58;26.99;101861.78;5037883;28;20617;-91